createdAt,value
2019-02-18T00:00:21.095Z,100.00
2019-02-18T00:02:49.603Z,100.00
2019-02-18T00:05:18.065Z,100.00
2019-02-18T00:07:46.493Z,100.00
2019-02-18T00:10:14.930Z,100.00
2019-02-18T00:12:43.456Z,100.00
2019-02-18T00:15:11.886Z,100.00
2019-02-18T00:17:40.424Z,100.00
2019-02-18T00:20:08.902Z,100.00
2019-02-18T00:22:37.364Z,100.00
2019-02-18T00:25:06.046Z,100.00
2019-02-18T00:27:34.512Z,100.00
2019-02-18T00:30:03.318Z,100.00
2019-02-18T00:32:31.740Z,100.00
2019-02-18T00:35:00.290Z,100.00
2019-02-18T00:37:28.748Z,100.00
2019-02-18T00:39:57.162Z,100.00
2019-02-18T00:42:25.619Z,100.00
2019-02-18T00:44:54.041Z,100.00
2019-02-18T00:47:22.499Z,100.00
2019-02-18T00:49:50.999Z,100.00
2019-02-18T00:52:19.446Z,100.00
2019-02-18T00:54:47.891Z,100.00
2019-02-18T00:57:16.325Z,100.00
2019-02-18T00:59:44.753Z,100.00
2019-02-18T01:02:13.734Z,100.00
2019-02-18T01:04:42.229Z,100.00
2019-02-18T01:07:10.789Z,100.00
2019-02-18T01:09:39.233Z,100.00
2019-02-18T01:12:07.678Z,100.00
2019-02-18T01:14:36.121Z,100.00
2019-02-18T01:17:04.576Z,100.00
2019-02-18T01:19:33.005Z,100.00
2019-02-18T01:22:01.418Z,100.00
2019-02-18T01:24:29.882Z,100.00
2019-02-18T01:26:58.358Z,100.00
2019-02-18T01:29:26.791Z,100.00
2019-02-18T01:31:55.272Z,100.00
2019-02-18T01:34:23.692Z,100.00
2019-02-18T01:36:52.170Z,100.00
2019-02-18T01:39:20.643Z,100.00
2019-02-18T01:41:49.153Z,100.00
2019-02-18T01:44:17.643Z,100.00
2019-02-18T01:46:46.110Z,100.00
2019-02-18T01:49:14.549Z,100.00
2019-02-18T01:51:43.029Z,100.00
2019-02-18T01:54:11.520Z,100.00
2019-02-18T01:56:39.954Z,100.00
2019-02-18T01:59:08.489Z,100.00
2019-02-18T02:01:36.948Z,100.00
2019-02-18T02:04:05.394Z,100.00
2019-02-18T02:06:33.847Z,100.00
2019-02-18T02:09:02.332Z,100.00
2019-02-18T02:11:30.792Z,100.00
2019-02-18T02:13:59.196Z,100.00
2019-02-18T02:16:27.650Z,100.00
2019-02-18T02:18:56.162Z,100.00
2019-02-18T02:21:24.608Z,100.00
2019-02-18T02:23:53.065Z,100.00
2019-02-18T02:26:21.521Z,100.00
2019-02-18T02:28:49.973Z,100.00
2019-02-18T02:31:18.457Z,100.00
2019-02-18T02:33:46.938Z,100.00
2019-02-18T02:36:15.399Z,100.00
2019-02-18T02:38:43.841Z,100.00
2019-02-18T02:41:12.252Z,100.00
2019-02-18T02:43:40.715Z,100.00
2019-02-18T02:46:09.167Z,100.00
2019-02-18T02:48:37.612Z,100.00
2019-02-18T02:51:06.055Z,100.00
2019-02-18T02:53:34.495Z,100.00
2019-02-18T02:56:02.932Z,100.00
2019-02-18T02:58:31.426Z,100.00
2019-02-18T03:00:59.849Z,100.00
2019-02-18T03:03:28.297Z,100.00
2019-02-18T03:05:56.779Z,100.00
2019-02-18T03:08:25.293Z,100.00
2019-02-18T03:10:53.798Z,100.00
2019-02-18T03:13:22.253Z,100.00
2019-02-18T03:15:50.676Z,100.00
2019-02-18T03:18:19.141Z,100.00
2019-02-18T03:20:47.553Z,100.00
2019-02-18T03:23:16.015Z,100.00
2019-02-18T03:25:46.006Z,100.00
2019-02-18T03:28:36.965Z,100.00
2019-02-18T03:31:10.994Z,100.00
2019-02-18T03:33:48.192Z,100.00
2019-02-18T03:36:16.642Z,100.00
2019-02-18T03:38:45.095Z,100.00
2019-02-18T03:41:13.531Z,100.00
2019-02-18T03:43:42.037Z,100.00
2019-02-18T03:46:10.494Z,100.00
2019-02-18T03:48:38.971Z,100.00
2019-02-18T03:51:07.427Z,100.00
2019-02-18T03:53:35.864Z,100.00
2019-02-18T03:56:04.356Z,100.00
2019-02-18T03:58:32.797Z,100.00
2019-02-18T04:01:01.341Z,100.00
2019-02-18T04:03:29.765Z,100.00
2019-02-18T04:05:58.206Z,100.00
2019-02-18T04:08:26.647Z,100.00
2019-02-18T04:10:55.098Z,100.00
2019-02-18T04:13:23.494Z,100.00
2019-02-18T04:15:51.967Z,100.00
2019-02-18T04:18:20.411Z,100.00
2019-02-18T04:20:48.833Z,100.00
2019-02-18T04:23:17.393Z,100.00
2019-02-18T04:25:45.818Z,100.00
2019-02-18T04:28:14.248Z,100.00
2019-02-18T04:30:42.735Z,100.00
2019-02-18T04:33:11.136Z,100.00
2019-02-18T04:35:39.559Z,100.00
2019-02-18T04:38:08.022Z,100.00
2019-02-18T04:40:36.504Z,100.00
2019-02-18T04:43:05.050Z,100.00
2019-02-18T04:45:33.564Z,100.00
2019-02-18T04:48:01.964Z,100.00
2019-02-18T04:50:30.755Z,100.00
2019-02-18T04:52:59.177Z,100.00
2019-02-18T04:55:27.639Z,100.00
2019-02-18T04:57:56.122Z,100.00
2019-02-18T05:00:24.646Z,100.00
2019-02-18T05:02:53.090Z,100.00
2019-02-18T05:05:21.621Z,100.00
2019-02-18T05:07:50.076Z,100.00
2019-02-18T05:10:18.531Z,100.00
2019-02-18T05:12:46.958Z,100.00
2019-02-18T05:15:15.384Z,100.00
2019-02-18T05:17:43.835Z,100.00
2019-02-18T05:20:12.402Z,100.00
2019-02-18T05:22:40.855Z,100.00
2019-02-18T05:25:12.823Z,100.00
2019-02-18T05:27:41.093Z,100.00
2019-02-18T05:30:11.663Z,100.00
2019-02-18T05:32:40.087Z,100.00
2019-02-18T05:35:08.694Z,100.00
2019-02-18T05:37:37.155Z,100.00
2019-02-18T05:40:08.003Z,100.00
2019-02-18T05:42:36.470Z,100.00
2019-02-18T05:45:07.450Z,100.00
2019-02-18T05:47:35.877Z,100.00
2019-02-18T05:50:05.181Z,100.00
2019-02-18T05:52:33.604Z,100.00
2019-02-18T05:55:02.058Z,100.00
2019-02-18T05:57:30.482Z,100.00
2019-02-18T05:59:58.992Z,100.00
2019-02-18T06:02:27.456Z,100.00
2019-02-18T06:04:55.885Z,100.00
2019-02-18T06:07:24.312Z,100.00
2019-02-18T06:09:52.759Z,100.00
2019-02-18T06:12:21.199Z,100.00
2019-02-18T06:14:49.625Z,100.00
2019-02-18T06:17:18.066Z,100.00
2019-02-18T06:19:46.507Z,100.00
2019-02-18T06:22:14.952Z,100.00
2019-02-18T06:24:43.403Z,100.00
2019-02-18T06:27:11.861Z,100.00
2019-02-18T06:29:40.267Z,100.00
2019-02-18T06:32:08.722Z,100.00
2019-02-18T06:34:37.162Z,100.00
2019-02-18T06:37:05.605Z,100.00
2019-02-18T06:39:41.255Z,100.00
2019-02-18T06:42:04.198Z,100.00
2019-02-18T06:44:34.265Z,100.00
2019-02-18T06:47:04.370Z,100.00
2019-02-18T06:49:32.779Z,100.00
2019-02-18T06:52:01.251Z,100.00
2019-02-18T06:54:29.697Z,100.00
2019-02-18T06:57:11.986Z,100.00
2019-02-18T06:59:42.066Z,100.00
2019-02-18T07:02:12.124Z,100.00
2019-02-18T07:04:45.646Z,100.00
2019-02-18T07:07:15.801Z,100.00
2019-02-18T07:10:01.171Z,100.00
2019-02-18T07:12:31.314Z,100.00
2019-02-18T07:14:59.758Z,100.00
2019-02-18T07:17:28.241Z,100.00
2019-02-18T07:19:56.719Z,100.00
2019-02-18T07:22:25.171Z,100.00
2019-02-18T07:24:53.591Z,99.54
2019-02-18T07:27:22.019Z,96.98
2019-02-18T07:29:50.475Z,95.21
2019-02-18T07:32:18.934Z,93.92
2019-02-18T07:34:47.370Z,91.45
2019-02-18T07:37:15.799Z,90.78
2019-02-18T07:39:44.226Z,89.18
2019-02-18T07:42:12.723Z,89.22
2019-02-18T07:44:41.145Z,87.13
2019-02-18T07:47:09.594Z,86.46
2019-02-18T07:49:38.024Z,84.44
2019-02-18T07:52:06.536Z,83.80
2019-02-18T07:54:34.991Z,82.26
2019-02-18T07:57:03.453Z,81.22
2019-02-18T07:59:31.906Z,79.22
2019-02-18T08:02:00.347Z,78.89
2019-02-18T08:04:28.784Z,80.45
2019-02-18T08:06:57.241Z,80.81
2019-02-18T08:09:25.766Z,80.51
2019-02-18T08:11:54.215Z,79.62
2019-02-18T08:14:22.740Z,76.64
2019-02-18T08:16:51.176Z,75.65
2019-02-18T08:19:20.382Z,75.62
2019-02-18T08:21:48.799Z,74.78
2019-02-18T08:24:17.282Z,74.19
2019-02-18T08:26:45.761Z,72.60
2019-02-18T08:29:14.283Z,69.05
2019-02-18T08:31:42.735Z,67.78
2019-02-18T08:34:11.223Z,67.65
2019-02-18T08:36:39.676Z,66.48
2019-02-18T08:39:08.163Z,65.82
2019-02-18T08:41:36.611Z,63.06
2019-02-18T08:44:05.132Z,62.20
2019-02-18T08:46:33.645Z,61.75
2019-02-18T08:49:02.052Z,58.84
2019-02-18T08:51:30.537Z,59.15
2019-02-18T08:53:58.970Z,59.00
2019-02-18T08:56:27.426Z,55.37
2019-02-18T08:58:55.953Z,56.09
2019-02-18T09:01:24.356Z,56.62
2019-02-18T09:03:52.827Z,57.29
2019-02-18T09:06:21.280Z,57.72
2019-02-18T09:08:49.736Z,58.49
2019-02-18T09:11:18.179Z,58.19
2019-02-18T09:13:46.621Z,58.31
2019-02-18T09:16:15.077Z,57.36
2019-02-18T09:18:43.518Z,57.67
2019-02-18T09:21:12.024Z,56.41
2019-02-18T09:23:44.800Z,53.79
2019-02-18T09:26:14.889Z,51.91
2019-02-18T09:28:43.351Z,47.33
2019-02-18T09:31:11.793Z,50.02
2019-02-18T09:33:40.263Z,48.39
2019-02-18T09:36:08.684Z,49.80
2019-02-18T09:38:37.180Z,49.28
2019-02-18T09:41:05.612Z,47.26
2019-02-18T09:43:34.032Z,48.92
2019-02-18T09:46:02.563Z,47.42
2019-02-18T09:48:30.983Z,47.76
2019-02-18T09:51:00.259Z,44.94
2019-02-18T09:53:28.797Z,43.97
2019-02-18T09:55:57.222Z,41.11
2019-02-18T09:58:25.685Z,40.81
2019-02-18T10:00:54.101Z,39.64
2019-02-18T10:03:31.618Z,42.52
2019-02-18T10:05:52.720Z,42.00
2019-02-18T10:08:21.151Z,44.06
2019-02-18T10:10:55.770Z,44.05
2019-02-18T10:13:19.810Z,44.44
2019-02-18T10:15:48.295Z,48.56
2019-02-18T10:18:16.773Z,49.57
2019-02-18T10:20:45.196Z,49.13
2019-02-18T10:23:13.616Z,47.42
2019-02-18T10:25:42.068Z,48.04
2019-02-18T10:28:10.486Z,49.97
2019-02-18T10:30:39.008Z,49.40
2019-02-18T10:33:07.502Z,50.61
2019-02-18T10:35:36.004Z,50.44
2019-02-18T10:38:04.485Z,54.03
2019-02-18T10:40:32.887Z,53.44
2019-02-18T10:43:01.341Z,52.63
2019-02-18T10:45:29.787Z,53.85
2019-02-18T10:47:58.215Z,54.92
2019-02-18T10:50:26.674Z,53.51
2019-02-18T10:52:55.146Z,52.62
2019-02-18T10:55:23.652Z,53.07
2019-02-18T10:57:52.120Z,55.91
2019-02-18T11:00:20.546Z,55.69
2019-02-18T11:02:49.058Z,55.68
2019-02-18T11:05:17.511Z,56.73
2019-02-18T11:07:45.941Z,55.00
2019-02-18T11:10:15.950Z,54.99
2019-02-18T11:12:44.465Z,53.75
2019-02-18T11:15:14.804Z,53.72
2019-02-18T11:17:43.731Z,52.64
2019-02-18T11:20:13.372Z,53.51
2019-02-18T11:22:41.785Z,54.09
2019-02-18T11:25:15.460Z,52.81
2019-02-18T11:27:43.932Z,53.36
2019-02-18T11:30:16.991Z,53.57
2019-02-18T11:32:45.412Z,53.25
2019-02-18T11:35:13.953Z,52.52
2019-02-18T11:37:42.409Z,52.58
2019-02-18T11:40:16.071Z,51.22
2019-02-18T11:42:44.516Z,50.63
2019-02-18T11:45:15.265Z,50.84
2019-02-18T11:47:43.869Z,49.43
2019-02-18T11:50:14.515Z,49.74
2019-02-18T11:52:42.934Z,49.29
2019-02-18T11:55:15.176Z,49.42
2019-02-18T11:57:44.140Z,48.56
2019-02-18T12:00:16.934Z,47.92
2019-02-18T12:02:45.439Z,47.70
2019-02-18T12:05:14.136Z,49.52
2019-02-18T12:07:42.671Z,50.05
2019-02-18T12:10:14.561Z,51.16
2019-02-18T12:12:43.278Z,53.05
2019-02-18T12:15:14.099Z,51.85
2019-02-18T12:17:42.534Z,51.17
2019-02-18T12:20:17.351Z,51.23
2019-02-18T12:22:45.821Z,51.67
2019-02-18T12:25:14.230Z,53.90
2019-02-18T12:27:43.066Z,52.26
2019-02-18T12:30:18.705Z,53.71
2019-02-18T12:32:47.121Z,51.83
2019-02-18T12:35:15.643Z,51.72
2019-02-18T12:37:44.073Z,50.67
2019-02-18T12:40:14.457Z,51.57
2019-02-18T12:42:42.997Z,51.19
2019-02-18T12:45:13.308Z,50.90
2019-02-18T12:47:41.922Z,51.20
2019-02-18T12:50:11.900Z,51.17
2019-02-18T12:52:40.389Z,51.74
2019-02-18T12:55:10.548Z,51.70
2019-02-18T12:57:39.648Z,50.84
2019-02-18T13:00:15.807Z,51.10
2019-02-18T13:02:45.268Z,51.70
2019-02-18T13:05:14.193Z,50.47
2019-02-18T13:07:42.695Z,52.08
2019-02-18T13:10:12.029Z,52.95
2019-02-18T13:12:41.098Z,52.83
2019-02-18T13:15:14.721Z,52.53
2019-02-18T13:17:43.172Z,52.44
2019-02-18T13:20:11.649Z,53.98
2019-02-18T13:22:40.226Z,52.07
2019-02-18T13:25:10.081Z,53.15
2019-02-18T13:27:38.541Z,52.72
2019-02-18T13:30:12.732Z,52.16
2019-02-18T13:32:41.150Z,52.30
2019-02-18T13:35:09.673Z,53.57
2019-02-18T13:37:38.151Z,53.18
2019-02-18T13:40:07.716Z,53.42
2019-02-18T13:42:36.208Z,50.89
2019-02-18T13:45:07.554Z,50.67
2019-02-18T13:47:36.865Z,51.50
2019-02-18T13:50:11.065Z,52.24
2019-02-18T13:52:39.552Z,52.82
2019-02-18T13:55:18.883Z,52.93
2019-02-18T13:57:47.394Z,51.46
2019-02-18T14:00:22.718Z,52.80
2019-02-18T14:02:51.607Z,51.96
2019-02-18T14:05:21.679Z,51.84
2019-02-18T14:07:50.205Z,51.91
2019-02-18T14:10:19.989Z,50.41
2019-02-18T14:12:48.550Z,49.27
2019-02-18T14:15:17.556Z,49.65
2019-02-18T14:17:46.077Z,49.10
2019-02-18T14:20:16.027Z,50.23
2019-02-18T14:22:44.471Z,50.01
2019-02-18T14:25:14.829Z,51.89
2019-02-18T14:27:43.306Z,51.54
2019-02-18T14:30:14.694Z,51.58
2019-02-18T14:32:43.341Z,51.39
2019-02-18T14:35:12.039Z,52.46
2019-02-18T14:37:40.484Z,52.82
2019-02-18T14:40:11.572Z,53.10
2019-02-18T14:42:40.153Z,53.80
2019-02-18T14:45:09.540Z,54.03
2019-02-18T14:47:38.087Z,54.29
2019-02-18T14:50:08.824Z,53.43
2019-02-18T14:52:37.321Z,53.49
2019-02-18T14:55:08.582Z,54.38
2019-02-18T14:57:37.170Z,56.09
2019-02-18T15:00:15.913Z,55.30
2019-02-18T15:02:44.352Z,55.47
2019-02-18T15:05:12.806Z,55.53
2019-02-18T15:07:41.675Z,55.03
2019-02-18T15:10:11.081Z,55.82
2019-02-18T15:12:39.567Z,55.44
2019-02-18T15:15:08.220Z,56.22
2019-02-18T15:17:36.678Z,56.50
2019-02-18T15:20:07.263Z,55.25
2019-02-18T15:22:36.279Z,55.02
2019-02-18T15:25:07.269Z,55.87
2019-02-18T15:27:35.756Z,56.49
2019-02-18T15:30:08.231Z,56.92
2019-02-18T15:32:36.662Z,57.12
2019-02-18T15:35:05.469Z,57.07
2019-02-18T15:37:34.641Z,58.11
2019-02-18T15:40:04.215Z,57.75
2019-02-18T15:42:32.720Z,58.05
2019-02-18T15:45:01.252Z,58.17
2019-02-18T15:47:29.769Z,57.81
2019-02-18T15:49:58.299Z,57.30
2019-02-18T15:52:27.278Z,57.01
2019-02-18T15:54:55.762Z,58.29
2019-02-18T15:57:24.206Z,58.74
2019-02-18T15:59:52.631Z,59.67
2019-02-18T16:02:22.626Z,60.47
2019-02-18T16:04:51.085Z,61.16
2019-02-18T16:07:19.509Z,61.49
2019-02-18T16:09:47.954Z,62.19
2019-02-18T16:12:16.454Z,62.68
2019-02-18T16:14:44.907Z,62.36
2019-02-18T16:17:13.337Z,62.41
2019-02-18T16:19:41.824Z,63.52
2019-02-18T16:22:10.571Z,64.30
2019-02-18T16:24:39.540Z,64.17
2019-02-18T16:27:07.978Z,64.56
2019-02-18T16:29:36.443Z,65.10
2019-02-18T16:32:05.024Z,65.46
2019-02-18T16:34:33.469Z,65.58
2019-02-18T16:37:02.390Z,65.65
2019-02-18T16:39:30.832Z,65.75
2019-02-18T16:41:59.925Z,66.45
2019-02-18T16:44:28.339Z,66.46
2019-02-18T16:46:56.777Z,66.59
2019-02-18T16:49:25.216Z,66.72
2019-02-18T16:51:53.664Z,66.91
2019-02-18T16:54:22.218Z,67.53
2019-02-18T16:56:50.655Z,67.60
2019-02-18T16:59:19.058Z,67.66
2019-02-18T17:01:48.460Z,66.61
2019-02-18T17:04:16.876Z,67.26
2019-02-18T17:06:45.325Z,67.66
2019-02-18T17:09:13.911Z,68.53
2019-02-18T17:11:42.370Z,68.94
2019-02-18T17:14:10.883Z,69.86
2019-02-18T17:16:39.338Z,70.22
2019-02-18T17:19:07.817Z,70.44
2019-02-18T17:21:36.280Z,71.10
2019-02-18T17:24:05.591Z,71.44
2019-02-18T17:26:34.846Z,71.51
2019-02-18T17:29:03.380Z,72.03
2019-02-18T17:31:31.809Z,72.20
2019-02-18T17:34:00.267Z,72.71
2019-02-18T17:36:28.762Z,72.73
2019-02-18T17:38:57.143Z,73.15
2019-02-18T17:41:25.574Z,73.42
2019-02-18T17:43:54.778Z,74.36
2019-02-18T17:46:23.294Z,75.15
2019-02-18T17:48:51.732Z,76.18
2019-02-18T17:51:20.174Z,76.48
2019-02-18T17:53:48.633Z,76.53
2019-02-18T17:56:18.282Z,76.78
2019-02-18T17:58:47.259Z,76.97
2019-02-18T18:01:15.690Z,77.89
2019-02-18T18:03:44.191Z,77.98
2019-02-18T18:06:12.620Z,77.92
2019-02-18T18:08:41.121Z,77.29
2019-02-18T18:11:09.555Z,77.21
2019-02-18T18:13:38.028Z,77.02
2019-02-18T18:16:06.541Z,76.87
2019-02-18T18:18:34.964Z,77.25
2019-02-18T18:21:04.007Z,77.79
2019-02-18T18:23:32.468Z,77.36
2019-02-18T18:26:00.895Z,77.62
2019-02-18T18:28:29.348Z,77.88
2019-02-18T18:30:58.243Z,78.26
2019-02-18T18:33:26.717Z,78.76
2019-02-18T18:35:55.130Z,79.69
2019-02-18T18:38:23.558Z,79.96
2019-02-18T18:40:52.009Z,80.48
2019-02-18T18:43:20.422Z,80.55
2019-02-18T18:45:48.877Z,81.14
2019-02-18T18:48:17.327Z,80.84
2019-02-18T18:50:45.766Z,80.80
2019-02-18T18:53:14.262Z,80.86
2019-02-18T18:55:42.754Z,80.99
2019-02-18T18:58:11.173Z,81.26
2019-02-18T19:00:39.661Z,81.45
2019-02-18T19:03:08.147Z,82.93
2019-02-18T19:05:36.581Z,83.37
2019-02-18T19:08:05.097Z,82.98
2019-02-18T19:10:34.354Z,83.52
2019-02-18T19:13:02.785Z,84.12
2019-02-18T19:15:31.274Z,84.74
2019-02-18T19:17:59.747Z,85.35
2019-02-18T19:20:28.244Z,85.04
2019-02-18T19:22:56.676Z,86.04
2019-02-18T19:25:25.179Z,85.92
2019-02-18T19:27:53.603Z,85.89
2019-02-18T19:30:27.915Z,85.85
2019-02-18T19:32:56.324Z,86.08
2019-02-18T19:35:24.768Z,86.57
2019-02-18T19:37:54.191Z,87.00
2019-02-18T19:40:22.691Z,87.33
2019-02-18T19:42:51.160Z,87.11
2019-02-18T19:45:24.260Z,87.41
2019-02-18T19:47:52.863Z,88.07
2019-02-18T19:50:22.523Z,87.95
2019-02-18T19:52:50.915Z,87.87
2019-02-18T19:55:19.435Z,87.82
2019-02-18T19:57:47.887Z,87.39
2019-02-18T20:00:18.929Z,86.89
2019-02-18T20:02:47.478Z,85.55
2019-02-18T20:05:16.259Z,84.27
2019-02-18T20:07:44.667Z,83.59
2019-02-18T20:10:13.991Z,82.49
2019-02-18T20:12:42.443Z,80.29
2019-02-18T20:15:13.491Z,78.52
2019-02-18T20:17:41.955Z,77.25
2019-02-18T20:20:17.883Z,75.56
2019-02-18T20:22:46.414Z,74.75
2019-02-18T20:25:14.899Z,74.00
2019-02-18T20:27:43.382Z,70.66
2019-02-18T20:30:16.380Z,69.04
2019-02-18T20:32:44.851Z,69.17
2019-02-18T20:35:13.770Z,68.01
2019-02-18T20:37:42.285Z,68.04
2019-02-18T20:40:12.209Z,67.87
2019-02-18T20:42:41.084Z,67.99
2019-02-18T20:45:12.409Z,68.83
2019-02-18T20:47:40.837Z,68.53
2019-02-18T20:50:15.845Z,68.72
2019-02-18T20:52:44.247Z,68.67
2019-02-18T20:55:14.223Z,68.51
2019-02-18T20:57:42.793Z,68.87
2019-02-18T21:00:17.867Z,68.89
2019-02-18T21:02:46.755Z,68.72
2019-02-18T21:05:15.195Z,68.97
2019-02-18T21:07:43.781Z,68.79
2019-02-18T21:10:15.361Z,68.53
2019-02-18T21:12:43.826Z,67.97
2019-02-18T21:15:12.493Z,68.04
2019-02-18T21:17:40.922Z,68.12
2019-02-18T21:20:11.580Z,67.90
2019-02-18T21:22:40.008Z,68.42
2019-02-18T21:25:10.186Z,67.88
2019-02-18T21:27:39.564Z,67.72
2019-02-18T21:30:11.041Z,67.37
2019-02-18T21:32:40.028Z,67.76
2019-02-18T21:35:08.721Z,68.00
2019-02-18T21:37:37.228Z,68.09
2019-02-18T21:40:10.293Z,68.63
2019-02-18T21:42:38.798Z,68.65
2019-02-18T21:45:10.484Z,69.52
2019-02-18T21:47:39.378Z,68.85
2019-02-18T21:50:09.643Z,68.76
2019-02-18T21:52:38.462Z,68.56
2019-02-18T21:55:09.132Z,68.11
2019-02-18T21:57:37.562Z,67.84
2019-02-18T22:00:21.803Z,67.63
2019-02-18T22:02:50.732Z,67.35
2019-02-18T22:05:19.248Z,68.11
2019-02-18T22:07:48.042Z,67.72
2019-02-18T22:10:16.570Z,67.61
2019-02-18T22:12:45.069Z,67.66
2019-02-18T22:15:14.960Z,67.65
2019-02-18T22:17:43.799Z,68.07
2019-02-18T22:20:14.118Z,68.15
2019-02-18T22:22:42.609Z,68.58
2019-02-18T22:25:12.532Z,68.08
2019-02-18T22:27:41.013Z,67.71
2019-02-18T22:30:14.490Z,67.97
2019-02-18T22:32:42.973Z,67.66
2019-02-18T22:35:11.964Z,67.47
2019-02-18T22:37:40.419Z,67.25
2019-02-18T22:40:10.671Z,67.09
2019-02-18T22:42:39.105Z,67.26
2019-02-18T22:45:09.994Z,67.46
2019-02-18T22:47:38.400Z,67.79
2019-02-18T22:50:09.426Z,67.66
2019-02-18T22:52:37.830Z,67.28
2019-02-18T22:55:07.783Z,67.67
2019-02-18T22:57:36.228Z,67.65
2019-02-18T23:00:10.510Z,67.26
2019-02-18T23:02:40.525Z,67.34
2019-02-18T23:05:08.972Z,67.66
2019-02-18T23:07:37.393Z,68.59
2019-02-18T23:10:06.959Z,68.23
2019-02-18T23:12:35.377Z,68.96
2019-02-18T23:15:04.658Z,68.78
2019-02-18T23:17:33.082Z,67.99
2019-02-18T23:20:01.509Z,68.59
2019-02-18T23:22:30.523Z,68.06
2019-02-18T23:24:58.945Z,68.50
2019-02-18T23:27:27.371Z,67.30
2019-02-18T23:29:55.816Z,67.71
2019-02-18T23:32:24.245Z,68.06
2019-02-18T23:34:52.660Z,67.46
2019-02-18T23:37:21.184Z,68.21
2019-02-18T23:39:49.589Z,67.93
2019-02-18T23:42:18.033Z,67.88
2019-02-18T23:44:46.479Z,68.26
2019-02-18T23:47:14.880Z,68.35
2019-02-18T23:49:43.298Z,68.86
2019-02-18T23:52:11.753Z,68.54
2019-02-18T23:54:40.158Z,67.90
2019-02-18T23:57:08.582Z,68.05
2019-02-18T23:59:37.015Z,68.77
